sensor_id;sensor_type;location;lat;lon;timestamp;temperature;humidity
18043;DHT22;9146;48.074;11.968;2023-07-31T00:00:00;14.80;99.90
18043;DHT22;9146;48.074;11.968;2023-07-31T00:02:27;14.80;99.90
18043;DHT22;9146;48.074;11.968;2023-07-31T00:04:53;14.80;99.90
18043;DHT22;9146;48.074;11.968;2023-07-31T00:07:22;14.80;99.90
18043;DHT22;9146;48.074;11.968;2023-07-31T00:09:49;14.80;99.90
18043;DHT22;9146;48.074;11.968;2023-07-31T00:12:16;14.80;99.90
18043;DHT22;9146;48.074;11.968;2023-07-31T00:14:43;14.70;99.90
18043;DHT22;9146;48.074;11.968;2023-07-31T00:17:09;14.60;99.90
18043;DHT22;9146;48.074;11.968;2023-07-31T00:19:37;14.50;99.90
18043;DHT22;9146;48.074;11.968;2023-07-31T00:22:07;14.40;99.90
18043;DHT22;9146;48.074;11.968;2023-07-31T00:24:35;14.30;99.90
18043;DHT22;9146;48.074;11.968;2023-07-31T00:27:02;14.20;99.90
18043;DHT22;9146;48.074;11.968;2023-07-31T00:29:30;14.10;99.90
18043;DHT22;9146;48.074;11.968;2023-07-31T00:31:57;14.10;99.90
18043;DHT22;9146;48.074;11.968;2023-07-31T00:34:23;14.00;99.90
18043;DHT22;9146;48.074;11.968;2023-07-31T00:36:52;13.90;99.90
18043;DHT22;9146;48.074;11.968;2023-07-31T00:39:19;13.80;99.90
18043;DHT22;9146;48.074;11.968;2023-07-31T00:41:48;13.80;99.90
18043;DHT22;9146;48.074;11.968;2023-07-31T00:44:15;13.70;99.90
18043;DHT22;9146;48.074;11.968;2023-07-31T00:46:42;13.60;99.90
18043;DHT22;9146;48.074;11.968;2023-07-31T00:49:09;13.60;99.90
18043;DHT22;9146;48.074;11.968;2023-07-31T00:51:36;13.60;99.90
18043;DHT22;9146;48.074;11.968;2023-07-31T00:54:03;13.60;99.90
18043;DHT22;9146;48.074;11.968;2023-07-31T00:56:30;13.60;99.90
18043;DHT22;9146;48.074;11.968;2023-07-31T00:58:59;13.60;99.90
18043;DHT22;9146;48.074;11.968;2023-07-31T01:01:27;13.70;99.90
18043;DHT22;9146;48.074;11.968;2023-07-31T01:03:54;13.70;99.90
18043;DHT22;9146;48.074;11.968;2023-07-31T01:06:25;13.80;99.90
18043;DHT22;9146;48.074;11.968;2023-07-31T01:08:59;13.80;99.90
18043;DHT22;9146;48.074;11.968;2023-07-31T01:11:30;13.90;99.90
18043;DHT22;9146;48.074;11.968;2023-07-31T01:13:58;13.90;99.90
18043;DHT22;9146;48.074;11.968;2023-07-31T01:16:26;13.90;99.90
18043;DHT22;9146;48.074;11.968;2023-07-31T01:18:53;13.90;99.90
18043;DHT22;9146;48.074;11.968;2023-07-31T01:21:37;13.90;99.90
18043;DHT22;9146;48.074;11.968;2023-07-31T01:24:28;13.90;99.90
18043;DHT22;9146;48.074;11.968;2023-07-31T01:27:06;13.90;99.90
18043;DHT22;9146;48.074;11.968;2023-07-31T01:29:40;14.00;99.90
18043;DHT22;9146;48.074;11.968;2023-07-31T01:32:09;14.00;99.90
18043;DHT22;9146;48.074;11.968;2023-07-31T01:34:37;14.00;99.90
18043;DHT22;9146;48.074;11.968;2023-07-31T01:37:05;13.90;99.90
18043;DHT22;9146;48.074;11.968;2023-07-31T01:39:32;13.90;99.90
18043;DHT22;9146;48.074;11.968;2023-07-31T01:42:00;13.90;99.90
18043;DHT22;9146;48.074;11.968;2023-07-31T01:44:27;13.90;99.90
18043;DHT22;9146;48.074;11.968;2023-07-31T01:46:54;13.90;99.90
18043;DHT22;9146;48.074;11.968;2023-07-31T01:49:21;14.00;99.90
18043;DHT22;9146;48.074;11.968;2023-07-31T01:51:48;14.00;99.90
18043;DHT22;9146;48.074;11.968;2023-07-31T01:54:15;14.10;99.90
18043;DHT22;9146;48.074;11.968;2023-07-31T01:56:41;14.10;99.90
18043;DHT22;9146;48.074;11.968;2023-07-31T01:59:10;14.10;99.90
18043;DHT22;9146;48.074;11.968;2023-07-31T02:01:36;14.10;99.90
18043;DHT22;9146;48.074;11.968;2023-07-31T02:04:03;14.10;99.90
18043;DHT22;9146;48.074;11.968;2023-07-31T02:06:30;14.10;99.90
18043;DHT22;9146;48.074;11.968;2023-07-31T02:08:57;14.10;99.90
18043;DHT22;9146;48.074;11.968;2023-07-31T02:11:24;14.10;99.90
18043;DHT22;9146;48.074;11.968;2023-07-31T02:13:51;14.10;99.90
18043;DHT22;9146;48.074;11.968;2023-07-31T02:16:19;14.10;99.90
18043;DHT22;9146;48.074;11.968;2023-07-31T02:18:46;14.10;99.90
18043;DHT22;9146;48.074;11.968;2023-07-31T02:21:13;14.10;99.90
18043;DHT22;9146;48.074;11.968;2023-07-31T02:23:40;14.10;99.90
18043;DHT22;9146;48.074;11.968;2023-07-31T02:26:07;14.10;99.90
18043;DHT22;9146;48.074;11.968;2023-07-31T02:28:33;14.10;99.90
18043;DHT22;9146;48.074;11.968;2023-07-31T02:31:01;14.10;99.90
18043;DHT22;9146;48.074;11.968;2023-07-31T02:33:30;14.10;99.90
18043;DHT22;9146;48.074;11.968;2023-07-31T02:35:57;14.10;99.90
18043;DHT22;9146;48.074;11.968;2023-07-31T02:38:24;14.10;99.90
18043;DHT22;9146;48.074;11.968;2023-07-31T02:40:50;14.00;99.90
18043;DHT22;9146;48.074;11.968;2023-07-31T02:43:17;14.00;99.90
18043;DHT22;9146;48.074;11.968;2023-07-31T02:45:45;14.00;99.90
18043;DHT22;9146;48.074;11.968;2023-07-31T02:48:13;14.00;99.90
18043;DHT22;9146;48.074;11.968;2023-07-31T02:50:41;14.00;99.90
18043;DHT22;9146;48.074;11.968;2023-07-31T02:53:08;13.90;99.90
18043;DHT22;9146;48.074;11.968;2023-07-31T02:55:34;13.90;99.90
18043;DHT22;9146;48.074;11.968;2023-07-31T02:58:01;13.90;99.90
18043;DHT22;9146;48.074;11.968;2023-07-31T03:00:28;13.80;99.90
18043;DHT22;9146;48.074;11.968;2023-07-31T03:02:55;13.80;99.90
18043;DHT22;9146;48.074;11.968;2023-07-31T03:05:22;13.80;99.90
18043;DHT22;9146;48.074;11.968;2023-07-31T03:07:51;13.80;99.90
18043;DHT22;9146;48.074;11.968;2023-07-31T03:10:18;13.80;99.90
18043;DHT22;9146;48.074;11.968;2023-07-31T03:12:46;13.70;99.90
18043;DHT22;9146;48.074;11.968;2023-07-31T03:15:13;13.70;99.90
18043;DHT22;9146;48.074;11.968;2023-07-31T03:17:40;13.70;99.90
18043;DHT22;9146;48.074;11.968;2023-07-31T03:20:08;13.70;99.90
18043;DHT22;9146;48.074;11.968;2023-07-31T03:22:35;13.70;99.90
18043;DHT22;9146;48.074;11.968;2023-07-31T03:25:04;13.70;99.90
18043;DHT22;9146;48.074;11.968;2023-07-31T03:27:31;13.70;99.90
18043;DHT22;9146;48.074;11.968;2023-07-31T03:29:59;13.70;99.90
18043;DHT22;9146;48.074;11.968;2023-07-31T03:32:26;13.70;99.90
18043;DHT22;9146;48.074;11.968;2023-07-31T03:34:54;13.60;99.90
18043;DHT22;9146;48.074;11.968;2023-07-31T03:37:21;13.60;99.90
18043;DHT22;9146;48.074;11.968;2023-07-31T03:39:47;13.60;99.90
18043;DHT22;9146;48.074;11.968;2023-07-31T03:42:16;13.60;99.90
18043;DHT22;9146;48.074;11.968;2023-07-31T03:44:43;13.60;99.90
18043;DHT22;9146;48.074;11.968;2023-07-31T03:47:09;13.60;99.90
18043;DHT22;9146;48.074;11.968;2023-07-31T03:49:36;13.50;99.90
18043;DHT22;9146;48.074;11.968;2023-07-31T03:52:04;13.50;99.90
18043;DHT22;9146;48.074;11.968;2023-07-31T03:54:31;13.50;99.90
18043;DHT22;9146;48.074;11.968;2023-07-31T03:56:58;13.50;99.90
18043;DHT22;9146;48.074;11.968;2023-07-31T03:59:26;13.50;99.90
18043;DHT22;9146;48.074;11.968;2023-07-31T04:01:53;13.50;99.90
18043;DHT22;9146;48.074;11.968;2023-07-31T04:04:20;13.60;99.90
18043;DHT22;9146;48.074;11.968;2023-07-31T04:06:46;13.60;99.90
18043;DHT22;9146;48.074;11.968;2023-07-31T04:09:13;13.70;99.90
18043;DHT22;9146;48.074;11.968;2023-07-31T04:11:40;13.70;99.90
18043;DHT22;9146;48.074;11.968;2023-07-31T04:14:07;13.70;99.90
18043;DHT22;9146;48.074;11.968;2023-07-31T04:16:35;13.80;99.90
18043;DHT22;9146;48.074;11.968;2023-07-31T04:19:03;13.80;99.90
18043;DHT22;9146;48.074;11.968;2023-07-31T04:21:30;13.90;99.90
18043;DHT22;9146;48.074;11.968;2023-07-31T04:23:57;13.90;99.90
18043;DHT22;9146;48.074;11.968;2023-07-31T04:26:24;14.00;99.90
18043;DHT22;9146;48.074;11.968;2023-07-31T04:28:51;14.00;99.90
18043;DHT22;9146;48.074;11.968;2023-07-31T04:31:17;14.00;99.90
18043;DHT22;9146;48.074;11.968;2023-07-31T04:33:46;14.10;99.90
18043;DHT22;9146;48.074;11.968;2023-07-31T04:36:13;14.30;99.90
18043;DHT22;9146;48.074;11.968;2023-07-31T04:38:39;14.40;99.90
18043;DHT22;9146;48.074;11.968;2023-07-31T04:41:07;14.50;99.90
18043;DHT22;9146;48.074;11.968;2023-07-31T04:43:34;14.60;99.90
18043;DHT22;9146;48.074;11.968;2023-07-31T04:46:04;14.60;99.90
18043;DHT22;9146;48.074;11.968;2023-07-31T04:48:31;14.60;99.90
18043;DHT22;9146;48.074;11.968;2023-07-31T04:51:00;14.70;99.90
18043;DHT22;9146;48.074;11.968;2023-07-31T04:53:27;14.70;99.90
18043;DHT22;9146;48.074;11.968;2023-07-31T04:55:53;14.80;99.90
18043;DHT22;9146;48.074;11.968;2023-07-31T04:58:20;14.80;99.90
18043;DHT22;9146;48.074;11.968;2023-07-31T05:00:47;14.80;99.90
18043;DHT22;9146;48.074;11.968;2023-07-31T05:03:14;14.80;99.90
18043;DHT22;9146;48.074;11.968;2023-07-31T05:05:41;14.90;99.90
18043;DHT22;9146;48.074;11.968;2023-07-31T05:08:09;14.90;99.90
18043;DHT22;9146;48.074;11.968;2023-07-31T05:10:36;15.10;99.90
18043;DHT22;9146;48.074;11.968;2023-07-31T05:13:03;15.20;99.90
18043;DHT22;9146;48.074;11.968;2023-07-31T05:15:30;15.30;99.90
18043;DHT22;9146;48.074;11.968;2023-07-31T05:17:57;15.50;99.90
18043;DHT22;9146;48.074;11.968;2023-07-31T05:20:23;15.70;99.90
18043;DHT22;9146;48.074;11.968;2023-07-31T05:22:51;15.90;99.90
18043;DHT22;9146;48.074;11.968;2023-07-31T05:25:19;16.10;99.90
18043;DHT22;9146;48.074;11.968;2023-07-31T05:27:46;16.40;99.90
18043;DHT22;9146;48.074;11.968;2023-07-31T05:30:13;16.60;99.90
18043;DHT22;9146;48.074;11.968;2023-07-31T05:32:40;16.70;99.90
18043;DHT22;9146;48.074;11.968;2023-07-31T05:35:07;16.80;99.90
18043;DHT22;9146;48.074;11.968;2023-07-31T05:37:34;17.00;99.90
18043;DHT22;9146;48.074;11.968;2023-07-31T05:40:01;17.20;99.90
18043;DHT22;9146;48.074;11.968;2023-07-31T05:42:29;17.50;99.90
18043;DHT22;9146;48.074;11.968;2023-07-31T05:44:56;17.70;99.90
18043;DHT22;9146;48.074;11.968;2023-07-31T05:47:23;17.90;99.90
18043;DHT22;9146;48.074;11.968;2023-07-31T05:49:50;18.10;99.90
18043;DHT22;9146;48.074;11.968;2023-07-31T05:52:18;18.30;99.90
18043;DHT22;9146;48.074;11.968;2023-07-31T05:54:45;18.50;99.90
18043;DHT22;9146;48.074;11.968;2023-07-31T05:57:12;18.70;99.90
18043;DHT22;9146;48.074;11.968;2023-07-31T05:59:40;18.90;99.90
18043;DHT22;9146;48.074;11.968;2023-07-31T06:02:07;19.10;99.90
18043;DHT22;9146;48.074;11.968;2023-07-31T06:04:34;19.20;99.90
18043;DHT22;9146;48.074;11.968;2023-07-31T06:07:01;19.20;99.90
18043;DHT22;9146;48.074;11.968;2023-07-31T06:09:29;19.20;99.90
18043;DHT22;9146;48.074;11.968;2023-07-31T06:11:55;19.20;99.90
18043;DHT22;9146;48.074;11.968;2023-07-31T06:14:22;19.30;99.90
18043;DHT22;9146;48.074;11.968;2023-07-31T06:16:51;19.30;99.90
18043;DHT22;9146;48.074;11.968;2023-07-31T06:19:17;19.30;99.90
18043;DHT22;9146;48.074;11.968;2023-07-31T06:21:45;19.40;99.90
18043;DHT22;9146;48.074;11.968;2023-07-31T06:24:12;19.40;99.90
18043;DHT22;9146;48.074;11.968;2023-07-31T06:26:44;19.50;99.90
18043;DHT22;9146;48.074;11.968;2023-07-31T06:29:11;19.60;99.90
18043;DHT22;9146;48.074;11.968;2023-07-31T06:31:38;19.70;99.90
18043;DHT22;9146;48.074;11.968;2023-07-31T06:34:06;19.90;99.90
18043;DHT22;9146;48.074;11.968;2023-07-31T06:36:33;20.10;99.90
18043;DHT22;9146;48.074;11.968;2023-07-31T06:39:00;20.30;99.90
18043;DHT22;9146;48.074;11.968;2023-07-31T06:58:40;20.40;99.90
18043;DHT22;9146;48.074;11.968;2023-07-31T07:01:06;20.70;99.90
18043;DHT22;9146;48.074;11.968;2023-07-31T07:03:33;20.60;99.90
18043;DHT22;9146;48.074;11.968;2023-07-31T07:06:00;20.50;99.90
18043;DHT22;9146;48.074;11.968;2023-07-31T07:08:29;20.40;99.90
18043;DHT22;9146;48.074;11.968;2023-07-31T07:10:56;20.40;99.90
18043;DHT22;9146;48.074;11.968;2023-07-31T07:13:22;20.30;99.90
18043;DHT22;9146;48.074;11.968;2023-07-31T07:15:50;20.30;99.90
18043;DHT22;9146;48.074;11.968;2023-07-31T07:18:17;20.40;99.90
18043;DHT22;9146;48.074;11.968;2023-07-31T07:20:47;20.60;99.90
18043;DHT22;9146;48.074;11.968;2023-07-31T07:23:15;20.70;99.90
18043;DHT22;9146;48.074;11.968;2023-07-31T07:25:45;20.80;99.90
18043;DHT22;9146;48.074;11.968;2023-07-31T07:28:13;20.90;99.90
18043;DHT22;9146;48.074;11.968;2023-07-31T07:30:40;21.00;99.90
18043;DHT22;9146;48.074;11.968;2023-07-31T07:33:07;21.00;99.90
18043;DHT22;9146;48.074;11.968;2023-07-31T07:35:34;21.00;99.90
18043;DHT22;9146;48.074;11.968;2023-07-31T07:38:01;21.00;99.90
18043;DHT22;9146;48.074;11.968;2023-07-31T07:40:28;21.10;99.90
18043;DHT22;9146;48.074;11.968;2023-07-31T07:42:57;21.10;99.90
18043;DHT22;9146;48.074;11.968;2023-07-31T07:45:25;21.20;99.90
18043;DHT22;9146;48.074;11.968;2023-07-31T07:47:52;21.30;99.90
18043;DHT22;9146;48.074;11.968;2023-07-31T07:50:19;21.40;99.90
18043;DHT22;9146;48.074;11.968;2023-07-31T07:52:46;21.60;99.90
18043;DHT22;9146;48.074;11.968;2023-07-31T07:55:13;21.70;99.90
18043;DHT22;9146;48.074;11.968;2023-07-31T07:57:40;21.90;99.90
18043;DHT22;9146;48.074;11.968;2023-07-31T08:00:10;21.90;99.90
18043;DHT22;9146;48.074;11.968;2023-07-31T08:02:37;22.10;99.90
18043;DHT22;9146;48.074;11.968;2023-07-31T08:05:05;22.10;99.90
18043;DHT22;9146;48.074;11.968;2023-07-31T08:07:32;22.10;99.90
18043;DHT22;9146;48.074;11.968;2023-07-31T08:09:58;22.20;99.90
18043;DHT22;9146;48.074;11.968;2023-07-31T08:12:25;22.20;99.90
18043;DHT22;9146;48.074;11.968;2023-07-31T08:14:52;22.10;99.90
18043;DHT22;9146;48.074;11.968;2023-07-31T08:17:21;22.00;99.90
18043;DHT22;9146;48.074;11.968;2023-07-31T08:19:47;22.00;99.90
18043;DHT22;9146;48.074;11.968;2023-07-31T08:22:14;21.90;99.90
18043;DHT22;9146;48.074;11.968;2023-07-31T08:24:41;21.80;99.90
18043;DHT22;9146;48.074;11.968;2023-07-31T08:27:08;21.70;99.90
18043;DHT22;9146;48.074;11.968;2023-07-31T08:29:36;21.70;99.90
18043;DHT22;9146;48.074;11.968;2023-07-31T08:32:03;21.70;99.90
18043;DHT22;9146;48.074;11.968;2023-07-31T08:34:31;21.70;99.90
18043;DHT22;9146;48.074;11.968;2023-07-31T08:36:58;21.80;99.90
18043;DHT22;9146;48.074;11.968;2023-07-31T08:39:25;21.90;99.90
18043;DHT22;9146;48.074;11.968;2023-07-31T08:41:58;22.10;99.90
18043;DHT22;9146;48.074;11.968;2023-07-31T08:44:25;22.30;99.90
18043;DHT22;9146;48.074;11.968;2023-07-31T08:46:52;22.60;99.90
18043;DHT22;9146;48.074;11.968;2023-07-31T08:49:20;22.80;99.90
18043;DHT22;9146;48.074;11.968;2023-07-31T08:51:50;23.00;99.90
18043;DHT22;9146;48.074;11.968;2023-07-31T08:54:19;23.10;99.90
18043;DHT22;9146;48.074;11.968;2023-07-31T08:56:46;23.10;99.90
18043;DHT22;9146;48.074;11.968;2023-07-31T08:59:14;23.20;99.90
18043;DHT22;9146;48.074;11.968;2023-07-31T09:01:47;23.50;99.90
18043;DHT22;9146;48.074;11.968;2023-07-31T09:04:18;23.60;99.90
18043;DHT22;9146;48.074;11.968;2023-07-31T09:06:47;23.80;99.90
18043;DHT22;9146;48.074;11.968;2023-07-31T09:09:17;23.80;99.90
18043;DHT22;9146;48.074;11.968;2023-07-31T09:11:46;23.70;99.90
18043;DHT22;9146;48.074;11.968;2023-07-31T09:14:14;23.50;99.90
18043;DHT22;9146;48.074;11.968;2023-07-31T09:16:52;23.50;99.90
18043;DHT22;9146;48.074;11.968;2023-07-31T09:19:25;23.30;99.90
18043;DHT22;9146;48.074;11.968;2023-07-31T09:21:52;23.00;99.90
18043;DHT22;9146;48.074;11.968;2023-07-31T09:24:26;22.80;99.90
18043;DHT22;9146;48.074;11.968;2023-07-31T09:26:54;22.50;99.90
18043;DHT22;9146;48.074;11.968;2023-07-31T09:29:22;22.30;99.90
18043;DHT22;9146;48.074;11.968;2023-07-31T09:31:51;22.20;99.90
18043;DHT22;9146;48.074;11.968;2023-07-31T09:34:18;22.20;99.90
18043;DHT22;9146;48.074;11.968;2023-07-31T09:36:46;22.30;99.90
18043;DHT22;9146;48.074;11.968;2023-07-31T09:39:15;22.40;99.90
18043;DHT22;9146;48.074;11.968;2023-07-31T09:41:45;22.40;99.90
18043;DHT22;9146;48.074;11.968;2023-07-31T09:44:12;22.40;99.90
18043;DHT22;9146;48.074;11.968;2023-07-31T09:46:39;22.50;99.90
18043;DHT22;9146;48.074;11.968;2023-07-31T09:49:07;22.60;99.90
18043;DHT22;9146;48.074;11.968;2023-07-31T09:51:36;22.90;99.90
18043;DHT22;9146;48.074;11.968;2023-07-31T09:54:13;23.10;99.90
18043;DHT22;9146;48.074;11.968;2023-07-31T09:56:44;23.30;99.90
18043;DHT22;9146;48.074;11.968;2023-07-31T09:59:12;23.50;99.90
18043;DHT22;9146;48.074;11.968;2023-07-31T10:01:41;23.60;99.90
18043;DHT22;9146;48.074;11.968;2023-07-31T10:04:08;23.60;99.90
18043;DHT22;9146;48.074;11.968;2023-07-31T10:06:36;23.60;99.90
18043;DHT22;9146;48.074;11.968;2023-07-31T10:09:06;23.30;99.90
18043;DHT22;9146;48.074;11.968;2023-07-31T10:11:38;23.10;99.90
18043;DHT22;9146;48.074;11.968;2023-07-31T10:14:08;23.00;99.90
18043;DHT22;9146;48.074;11.968;2023-07-31T10:16:38;22.90;99.90
18043;DHT22;9146;48.074;11.968;2023-07-31T10:19:06;22.90;99.90
18043;DHT22;9146;48.074;11.968;2023-07-31T10:21:34;22.80;99.90
18043;DHT22;9146;48.074;11.968;2023-07-31T10:24:03;22.80;99.90
18043;DHT22;9146;48.074;11.968;2023-07-31T10:26:32;22.80;99.90
18043;DHT22;9146;48.074;11.968;2023-07-31T10:29:00;22.80;99.90
18043;DHT22;9146;48.074;11.968;2023-07-31T10:31:28;22.80;99.90
18043;DHT22;9146;48.074;11.968;2023-07-31T10:33:57;22.70;99.90
18043;DHT22;9146;48.074;11.968;2023-07-31T10:36:25;22.70;99.90
18043;DHT22;9146;48.074;11.968;2023-07-31T10:38:52;22.90;99.90
18043;DHT22;9146;48.074;11.968;2023-07-31T10:41:28;23.10;99.90
18043;DHT22;9146;48.074;11.968;2023-07-31T10:43:58;23.30;99.90
18043;DHT22;9146;48.074;11.968;2023-07-31T10:46:25;23.50;99.90
18043;DHT22;9146;48.074;11.968;2023-07-31T10:48:59;23.60;99.90
18043;DHT22;9146;48.074;11.968;2023-07-31T10:51:33;23.80;99.90
18043;DHT22;9146;48.074;11.968;2023-07-31T10:54:12;23.70;99.90
18043;DHT22;9146;48.074;11.968;2023-07-31T10:56:39;23.70;99.90
18043;DHT22;9146;48.074;11.968;2023-07-31T10:59:06;23.70;99.90
18043;DHT22;9146;48.074;11.968;2023-07-31T11:01:52;23.70;99.90
18043;DHT22;9146;48.074;11.968;2023-07-31T11:04:36;24.00;99.90
18043;DHT22;9146;48.074;11.968;2023-07-31T11:07:03;24.30;99.90
18043;DHT22;9146;48.074;11.968;2023-07-31T11:09:36;24.50;99.00
18043;DHT22;9146;48.074;11.968;2023-07-31T11:12:03;24.70;97.60
18043;DHT22;9146;48.074;11.968;2023-07-31T11:14:30;24.60;96.30
18043;DHT22;9146;48.074;11.968;2023-07-31T11:16:57;24.40;96.90
18043;DHT22;9146;48.074;11.968;2023-07-31T11:19:25;24.30;96.70
18043;DHT22;9146;48.074;11.968;2023-07-31T11:21:53;24.30;96.60
18043;DHT22;9146;48.074;11.968;2023-07-31T11:24:20;24.10;96.00
18043;DHT22;9146;48.074;11.968;2023-07-31T11:26:50;24.00;95.20
18043;DHT22;9146;48.074;11.968;2023-07-31T11:29:18;23.90;96.10
18043;DHT22;9146;48.074;11.968;2023-07-31T11:31:45;24.00;97.10
18043;DHT22;9146;48.074;11.968;2023-07-31T11:34:13;24.00;97.40
18043;DHT22;9146;48.074;11.968;2023-07-31T11:36:40;24.10;97.60
18043;DHT22;9146;48.074;11.968;2023-07-31T11:39:09;24.00;97.00
18043;DHT22;9146;48.074;11.968;2023-07-31T11:41:36;23.90;96.30
18043;DHT22;9146;48.074;11.968;2023-07-31T11:44:07;23.90;96.60
18043;DHT22;9146;48.074;11.968;2023-07-31T11:46:34;23.80;94.60
18043;DHT22;9146;48.074;11.968;2023-07-31T11:49:02;23.70;94.70
18043;DHT22;9146;48.074;11.968;2023-07-31T11:51:29;23.50;94.80
18043;DHT22;9146;48.074;11.968;2023-07-31T11:53:58;23.40;96.00
18043;DHT22;9146;48.074;11.968;2023-07-31T11:56:28;23.30;95.30
18043;DHT22;9146;48.074;11.968;2023-07-31T11:58:58;23.20;95.70
18043;DHT22;9146;48.074;11.968;2023-07-31T12:01:26;23.30;96.10
18043;DHT22;9146;48.074;11.968;2023-07-31T12:03:54;23.30;96.00
18043;DHT22;9146;48.074;11.968;2023-07-31T12:06:21;23.40;94.70
18043;DHT22;9146;48.074;11.968;2023-07-31T12:08:48;23.40;95.10
18043;DHT22;9146;48.074;11.968;2023-07-31T12:11:15;23.50;95.70
18043;DHT22;9146;48.074;11.968;2023-07-31T12:13:45;23.60;96.80
18043;DHT22;9146;48.074;11.968;2023-07-31T12:16:11;23.70;96.70
18043;DHT22;9146;48.074;11.968;2023-07-31T12:18:39;23.90;95.80
18043;DHT22;9146;48.074;11.968;2023-07-31T12:21:07;24.10;96.30
18043;DHT22;9146;48.074;11.968;2023-07-31T12:23:36;24.30;96.80
18043;DHT22;9146;48.074;11.968;2023-07-31T12:26:04;24.60;96.60
18043;DHT22;9146;48.074;11.968;2023-07-31T12:28:35;24.80;95.00
18043;DHT22;9146;48.074;11.968;2023-07-31T12:31:05;24.90;94.40
18043;DHT22;9146;48.074;11.968;2023-07-31T12:33:33;24.90;93.80
18043;DHT22;9146;48.074;11.968;2023-07-31T12:36:02;24.90;94.20
18043;DHT22;9146;48.074;11.968;2023-07-31T12:38:29;24.90;94.50
18043;DHT22;9146;48.074;11.968;2023-07-31T12:40:56;25.00;94.60
18043;DHT22;9146;48.074;11.968;2023-07-31T12:43:23;25.20;94.60
18043;DHT22;9146;48.074;11.968;2023-07-31T12:45:51;25.40;94.90
18043;DHT22;9146;48.074;11.968;2023-07-31T12:48:20;25.70;93.10
18043;DHT22;9146;48.074;11.968;2023-07-31T12:50:47;25.80;92.20
18043;DHT22;9146;48.074;11.968;2023-07-31T12:53:15;26.10;91.70
18043;DHT22;9146;48.074;11.968;2023-07-31T12:55:42;26.20;91.30
18043;DHT22;9146;48.074;11.968;2023-07-31T12:58:09;26.30;91.40
18043;DHT22;9146;48.074;11.968;2023-07-31T13:00:36;26.40;91.90
18043;DHT22;9146;48.074;11.968;2023-07-31T13:03:03;26.60;91.90
18043;DHT22;9146;48.074;11.968;2023-07-31T13:05:32;26.70;91.70
18043;DHT22;9146;48.074;11.968;2023-07-31T13:07:59;26.80;91.10
18043;DHT22;9146;48.074;11.968;2023-07-31T13:10:27;26.90;89.30
18043;DHT22;9146;48.074;11.968;2023-07-31T13:12:54;26.90;86.20
18043;DHT22;9146;48.074;11.968;2023-07-31T13:15:21;26.80;85.50
18043;DHT22;9146;48.074;11.968;2023-07-31T13:17:48;26.90;87.90
18043;DHT22;9146;48.074;11.968;2023-07-31T13:20:15;27.10;87.20
18043;DHT22;9146;48.074;11.968;2023-07-31T13:22:43;27.00;82.50
18043;DHT22;9146;48.074;11.968;2023-07-31T13:25:10;26.70;83.10
18043;DHT22;9146;48.074;11.968;2023-07-31T13:27:37;26.60;85.50
18043;DHT22;9146;48.074;11.968;2023-07-31T13:30:04;26.50;84.50
18043;DHT22;9146;48.074;11.968;2023-07-31T13:32:32;26.40;84.80
18043;DHT22;9146;48.074;11.968;2023-07-31T13:34:58;26.20;83.60
18043;DHT22;9146;48.074;11.968;2023-07-31T13:37:25;26.00;83.20
18043;DHT22;9146;48.074;11.968;2023-07-31T13:39:53;25.80;80.40
18043;DHT22;9146;48.074;11.968;2023-07-31T13:42:20;25.60;81.20
18043;DHT22;9146;48.074;11.968;2023-07-31T13:44:47;25.50;83.10
18043;DHT22;9146;48.074;11.968;2023-07-31T13:47:14;25.50;83.20
18043;DHT22;9146;48.074;11.968;2023-07-31T13:49:41;25.60;85.30
18043;DHT22;9146;48.074;11.968;2023-07-31T13:52:09;25.80;84.80
18043;DHT22;9146;48.074;11.968;2023-07-31T13:54:35;26.10;85.30
18043;DHT22;9146;48.074;11.968;2023-07-31T13:57:05;26.20;81.10
18043;DHT22;9146;48.074;11.968;2023-07-31T13:59:31;26.20;78.80
18043;DHT22;9146;48.074;11.968;2023-07-31T14:01:58;26.10;80.80
18043;DHT22;9146;48.074;11.968;2023-07-31T14:04:25;26.10;82.20
18043;DHT22;9146;48.074;11.968;2023-07-31T14:06:52;25.90;82.40
18043;DHT22;9146;48.074;11.968;2023-07-31T14:09:19;25.90;80.50
18043;DHT22;9146;48.074;11.968;2023-07-31T14:11:46;25.80;79.40
18043;DHT22;9146;48.074;11.968;2023-07-31T14:14:14;25.80;80.50
18043;DHT22;9146;48.074;11.968;2023-07-31T14:16:43;25.70;80.50
18043;DHT22;9146;48.074;11.968;2023-07-31T14:19:10;25.80;80.30
18043;DHT22;9146;48.074;11.968;2023-07-31T14:21:37;25.80;80.70
18043;DHT22;9146;48.074;11.968;2023-07-31T14:24:04;26.00;82.00
18043;DHT22;9146;48.074;11.968;2023-07-31T14:26:31;26.00;80.50
18043;DHT22;9146;48.074;11.968;2023-07-31T14:28:58;25.90;81.60
18043;DHT22;9146;48.074;11.968;2023-07-31T14:31:26;26.00;80.00
18043;DHT22;9146;48.074;11.968;2023-07-31T14:33:53;26.00;80.10
18043;DHT22;9146;48.074;11.968;2023-07-31T14:36:20;26.10;80.30
18043;DHT22;9146;48.074;11.968;2023-07-31T14:38:47;26.30;79.20
18043;DHT22;9146;48.074;11.968;2023-07-31T14:41:14;26.50;77.00
18043;DHT22;9146;48.074;11.968;2023-07-31T14:43:40;26.50;77.20
18043;DHT22;9146;48.074;11.968;2023-07-31T14:46:07;26.40;77.60
18043;DHT22;9146;48.074;11.968;2023-07-31T14:48:35;26.40;75.80
18043;DHT22;9146;48.074;11.968;2023-07-31T14:51:02;26.50;76.40
18043;DHT22;9146;48.074;11.968;2023-07-31T14:53:29;26.70;76.20
18043;DHT22;9146;48.074;11.968;2023-07-31T14:55:56;26.70;73.60
18043;DHT22;9146;48.074;11.968;2023-07-31T14:58:23;26.90;70.80
18043;DHT22;9146;48.074;11.968;2023-07-31T15:00:50;27.00;69.40
18043;DHT22;9146;48.074;11.968;2023-07-31T15:03:17;27.00;69.80
18043;DHT22;9146;48.074;11.968;2023-07-31T15:05:45;27.20;70.10
18043;DHT22;9146;48.074;11.968;2023-07-31T15:08:12;27.30;70.40
18043;DHT22;9146;48.074;11.968;2023-07-31T15:10:39;27.40;69.60
18043;DHT22;9146;48.074;11.968;2023-07-31T15:13:06;27.50;69.60
18043;DHT22;9146;48.074;11.968;2023-07-31T15:15:32;27.40;69.70
18043;DHT22;9146;48.074;11.968;2023-07-31T15:17:59;27.40;68.60
18043;DHT22;9146;48.074;11.968;2023-07-31T15:20:26;27.20;68.10
18043;DHT22;9146;48.074;11.968;2023-07-31T15:22:55;27.30;69.40
18043;DHT22;9146;48.074;11.968;2023-07-31T15:25:22;27.30;69.70
18043;DHT22;9146;48.074;11.968;2023-07-31T15:27:49;27.40;69.30
18043;DHT22;9146;48.074;11.968;2023-07-31T15:30:16;27.20;68.80
18043;DHT22;9146;48.074;11.968;2023-07-31T15:32:43;27.10;65.90
18043;DHT22;9146;48.074;11.968;2023-07-31T15:35:13;26.80;66.00
18043;DHT22;9146;48.074;11.968;2023-07-31T15:37:40;26.60;67.10
18043;DHT22;9146;48.074;11.968;2023-07-31T15:40:10;26.40;68.40
18043;DHT22;9146;48.074;11.968;2023-07-31T15:42:37;26.30;68.40
18043;DHT22;9146;48.074;11.968;2023-07-31T15:45:06;26.10;68.90
18043;DHT22;9146;48.074;11.968;2023-07-31T15:47:33;26.10;69.40
18043;DHT22;9146;48.074;11.968;2023-07-31T15:50:00;26.10;69.90